Terminal Aerodrome Forecast
Issued by NWS Charleston, WV

Home | Current Version | Previous Version | Text Only | Print | Product List | Glossary On
Versions: 1 2 3 4 5 6 7 8 9 10 11 12 13 14 15 16 17 18 19 20 21 22 23 24 25 26 27 28
000
FTUS41 KRLX 220800 AAA
TAFEKN
TAF AMD
KEKN 220801Z 2208/2306 29006KT P6SM BKN025
     FM220900 29005KT P6SM BKN015
     FM221100 29004KT P6SM OVC010
     FM221400 30004KT P6SM OVC015
     FM221700 30006KT P6SM BKN025
     FM222300 VRB03KT P6SM SCT025
     FM230500 00000KT 3SM BR FEW015=

USA.gov is the U.S. government's official web portal to all federal, state and local government web resources and services.